createdAt,value
2018-07-01T00:01:58.581Z,1.40
2018-07-01T00:04:27.680Z,0.90
2018-07-01T00:06:56.876Z,0.90
2018-07-01T00:09:26.001Z,1.03
2018-07-01T00:11:55.144Z,0.93
2018-07-01T00:14:24.327Z,1.37
2018-07-01T00:16:53.477Z,1.10
2018-07-01T00:19:22.565Z,1.00
2018-07-01T00:21:51.690Z,0.73
2018-07-01T00:24:21.884Z,0.87
2018-07-01T00:26:51.083Z,1.33
2018-07-01T00:29:20.153Z,1.00
2018-07-01T00:31:49.288Z,1.10
2018-07-01T00:34:40.260Z,1.17
2018-07-01T00:37:09.376Z,1.17
2018-07-01T00:39:38.496Z,1.00
2018-07-01T00:42:07.744Z,1.23
2018-07-01T00:44:36.856Z,1.33
2018-07-01T00:47:06.072Z,1.00
2018-07-01T00:49:35.453Z,1.00
2018-07-01T00:52:04.854Z,1.10
2018-07-01T00:55:01.549Z,0.77
2018-07-01T00:57:31.052Z,0.87
2018-07-01T01:00:00.405Z,1.50
2018-07-01T01:02:29.480Z,1.40
2018-07-01T01:04:58.809Z,1.40
2018-07-01T01:07:28.203Z,1.30
2018-07-01T01:09:57.864Z,1.23
2018-07-01T01:12:27.208Z,1.40
2018-07-01T01:14:56.289Z,1.53
2018-07-01T01:17:25.589Z,1.27
2018-07-01T01:19:54.966Z,1.67
2018-07-01T01:22:24.375Z,1.40
2018-07-01T01:24:53.653Z,1.50
2018-07-01T01:27:23.089Z,1.37
2018-07-01T01:29:52.429Z,1.33
2018-07-01T01:32:21.851Z,1.20
2018-07-01T01:34:52.267Z,1.33
2018-07-01T01:37:21.605Z,1.23
2018-07-01T01:39:51.041Z,1.00
2018-07-01T01:42:30.489Z,1.50
2018-07-01T01:45:05.121Z,1.30
2018-07-01T01:47:38.717Z,1.30
2018-07-01T01:50:44.382Z,1.17
2018-07-01T01:53:28.621Z,1.27
2018-07-01T01:56:10.141Z,1.00
2018-07-01T01:58:44.408Z,1.27
2018-07-01T02:01:18.557Z,1.33
2018-07-01T02:03:58.760Z,2.27
2018-07-01T02:06:31.242Z,2.83
2018-07-01T02:09:04.757Z,2.57
2018-07-01T02:11:37.297Z,1.77
2018-07-01T02:14:17.159Z,1.73
2018-07-01T02:16:50.422Z,1.87
2018-07-01T02:19:19.526Z,1.90
2018-07-01T02:21:48.726Z,1.77
2018-07-01T02:24:38.997Z,2.30
2018-07-01T02:27:08.100Z,2.00
2018-07-01T02:29:37.292Z,1.70
2018-07-01T02:32:06.529Z,1.70
2018-07-01T02:34:44.491Z,2.20
2018-07-01T02:37:13.858Z,2.47
2018-07-01T02:39:43.203Z,2.03
2018-07-01T02:42:12.641Z,2.00
2018-07-01T02:44:49.256Z,2.00
2018-07-01T02:47:18.589Z,1.90
2018-07-01T02:49:48.010Z,1.93
2018-07-01T02:52:18.245Z,2.10
2018-07-01T02:54:55.962Z,1.93
2018-07-01T02:57:25.360Z,2.00
2018-07-01T02:59:54.771Z,1.93
2018-07-01T03:02:24.151Z,1.70
2018-07-01T03:04:53.460Z,1.67
2018-07-01T03:07:22.881Z,1.80
2018-07-01T03:09:52.244Z,1.40
2018-07-01T03:12:21.653Z,1.80
2018-07-01T03:15:05.380Z,1.60
2018-07-01T03:17:34.856Z,1.50
2018-07-01T03:20:04.236Z,2.20
2018-07-01T03:22:33.598Z,1.77
2018-07-01T03:25:09.491Z,1.60
2018-07-01T03:27:38.635Z,1.20
2018-07-01T03:30:07.800Z,1.50
2018-07-01T03:32:38.148Z,1.90
2018-07-01T03:35:07.560Z,1.70
2018-07-01T03:37:36.860Z,1.77
2018-07-01T03:40:06.469Z,1.60
2018-07-01T03:42:35.793Z,1.77
2018-07-01T03:45:05.147Z,1.40
2018-07-01T03:47:34.522Z,1.80
2018-07-01T03:50:03.915Z,2.00
2018-07-01T03:53:07.605Z,1.70
2018-07-01T03:55:36.994Z,1.53
2018-07-01T03:58:06.489Z,1.97
2018-07-01T04:00:35.942Z,1.60
2018-07-01T04:03:09.509Z,2.40
2018-07-01T04:05:38.597Z,2.17
2018-07-01T04:08:07.976Z,3.63
2018-07-01T04:10:37.321Z,3.73
2018-07-01T04:13:10.437Z,2.93
2018-07-01T04:15:39.777Z,2.63
2018-07-01T04:18:09.109Z,3.10
2018-07-01T04:20:38.456Z,2.90
2018-07-01T04:23:15.672Z,2.50
2018-07-01T04:25:45.042Z,2.87
2018-07-01T04:28:14.360Z,2.57
2018-07-01T04:30:43.684Z,2.57
2018-07-01T04:33:14.149Z,2.67
2018-07-01T04:35:43.566Z,2.40
2018-07-01T04:38:12.900Z,2.27
2018-07-01T04:40:42.360Z,2.23
2018-07-01T04:43:21.157Z,1.73
2018-07-01T04:45:50.649Z,2.67
2018-07-01T04:48:20.046Z,1.70
2018-07-01T04:50:49.404Z,1.93
2018-07-01T04:53:18.793Z,2.13
2018-07-01T04:55:48.261Z,1.90
2018-07-01T04:58:17.662Z,2.00
2018-07-01T05:00:47.009Z,1.70
2018-07-01T05:03:17.368Z,1.83
2018-07-01T05:05:46.690Z,1.57
2018-07-01T05:08:16.102Z,2.10
2018-07-01T05:10:45.646Z,1.97
2018-07-01T05:13:16.097Z,1.80
2018-07-01T05:15:45.497Z,2.17
2018-07-01T05:18:14.846Z,1.97
2018-07-01T05:20:44.227Z,1.60
2018-07-01T05:23:17.542Z,1.60
2018-07-01T05:25:47.031Z,1.53
2018-07-01T05:28:16.405Z,1.80
2018-07-01T05:30:45.733Z,1.60
2018-07-01T05:33:15.193Z,1.30
2018-07-01T05:35:44.564Z,1.20
2018-07-01T05:38:13.927Z,1.37
2018-07-01T05:40:43.257Z,1.53
2018-07-01T05:43:14.781Z,1.10
2018-07-01T05:45:44.156Z,1.20
2018-07-01T05:48:14.300Z,1.30
2018-07-01T05:50:43.988Z,0.83
2018-07-01T05:53:13.433Z,0.83
2018-07-01T05:55:42.844Z,0.83
2018-07-01T05:58:12.226Z,1.03
2018-07-01T06:00:41.638Z,1.00
2018-07-01T06:03:14.272Z,0.90
2018-07-01T06:05:43.626Z,0.90
2018-07-01T06:08:12.977Z,0.70
2018-07-01T06:10:42.381Z,0.73
2018-07-01T06:13:19.216Z,0.93
2018-07-01T06:15:48.554Z,1.00
2018-07-01T06:18:17.948Z,0.80
2018-07-01T06:20:47.333Z,1.00
2018-07-01T06:23:26.116Z,0.90
2018-07-01T06:25:55.530Z,1.07
2018-07-01T06:28:24.904Z,0.80
2018-07-01T06:30:54.313Z,0.80
2018-07-01T06:33:24.764Z,0.80
2018-07-01T06:35:54.133Z,0.90
2018-07-01T06:38:23.496Z,0.90
2018-07-01T06:40:52.885Z,0.70
2018-07-01T06:43:22.339Z,0.77
2018-07-01T06:45:51.658Z,1.10
2018-07-01T06:48:21.001Z,0.70
2018-07-01T06:50:50.345Z,0.80
2018-07-01T06:53:49.016Z,0.80
2018-07-01T06:56:18.469Z,0.90
2018-07-01T06:58:47.745Z,0.70
2018-07-01T07:01:17.268Z,0.97
2018-07-01T07:03:46.782Z,0.60
2018-07-01T07:06:16.170Z,0.73
2018-07-01T07:08:45.613Z,0.70
2018-07-01T07:11:14.961Z,0.80
2018-07-01T07:13:48.416Z,0.80
2018-07-01T07:16:17.732Z,0.90
2018-07-01T07:18:47.080Z,0.77
2018-07-01T07:21:16.444Z,0.70
2018-07-01T07:23:45.865Z,0.80
2018-07-01T07:26:15.254Z,1.00
2018-07-01T07:28:44.621Z,0.90
2018-07-01T07:31:13.971Z,0.90
2018-07-01T07:33:53.389Z,1.10
2018-07-01T07:36:22.822Z,0.90
2018-07-01T07:38:52.254Z,0.80
2018-07-01T07:41:21.689Z,0.67
2018-07-01T07:43:51.186Z,1.00
2018-07-01T07:46:20.530Z,0.97
2018-07-01T07:48:49.885Z,0.97
2018-07-01T07:51:19.233Z,0.87
2018-07-01T07:53:50.633Z,0.37
2018-07-01T07:56:20.005Z,0.80
2018-07-01T07:58:49.377Z,0.50
2018-07-01T08:01:25.418Z,0.60
2018-07-01T08:03:59.593Z,0.57
2018-07-01T08:06:28.937Z,0.60
2018-07-01T08:08:58.353Z,0.70
2018-07-01T08:11:27.720Z,0.80
2018-07-01T08:14:05.636Z,0.67
2018-07-01T08:16:35.065Z,0.50
2018-07-01T08:19:04.448Z,0.60
2018-07-01T08:21:34.186Z,0.70
2018-07-01T08:24:33.600Z,0.77
2018-07-01T08:27:02.974Z,0.50
2018-07-01T08:29:32.333Z,0.63
2018-07-01T08:32:01.678Z,0.63
2018-07-01T08:34:38.092Z,0.60
2018-07-01T08:37:07.434Z,0.70
2018-07-01T08:39:36.856Z,0.80
2018-07-01T08:42:39.104Z,0.53
2018-07-01T08:45:09.366Z,0.40
2018-07-01T08:47:38.785Z,0.53
2018-07-01T08:50:08.788Z,0.70
2018-07-01T08:52:39.357Z,0.70
2018-07-01T08:55:08.765Z,0.60
2018-07-01T08:57:38.174Z,0.50
2018-07-01T09:00:08.402Z,0.70
2018-07-01T09:02:37.873Z,0.60
2018-07-01T09:05:07.321Z,0.70
2018-07-01T09:07:36.718Z,0.80
2018-07-01T09:10:09.109Z,0.53
2018-07-01T09:12:46.512Z,0.90
2018-07-01T09:15:15.972Z,0.70
2018-07-01T09:17:45.289Z,0.63
2018-07-01T09:20:14.674Z,0.40
2018-07-01T09:22:45.057Z,0.50
2018-07-01T09:25:14.388Z,0.53
2018-07-01T09:27:43.858Z,0.60
2018-07-01T09:30:13.230Z,0.60
2018-07-01T09:33:30.213Z,0.80
2018-07-01T09:35:59.639Z,0.60
2018-07-01T09:38:28.949Z,0.63
2018-07-01T09:40:58.344Z,0.80
2018-07-01T09:43:27.832Z,0.50
2018-07-01T09:45:57.177Z,0.87
2018-07-01T09:48:26.729Z,0.93
2018-07-01T09:50:56.069Z,0.90
2018-07-01T09:53:25.245Z,0.60
2018-07-01T09:55:54.890Z,0.40
2018-07-01T09:58:24.262Z,0.60
2018-07-01T10:00:53.728Z,0.47
2018-07-01T10:03:25.326Z,0.80
2018-07-01T10:05:54.765Z,1.30
2018-07-01T10:08:24.137Z,0.80
2018-07-01T10:10:53.567Z,0.60
2018-07-01T10:13:23.028Z,0.72
2018-07-01T10:15:52.376Z,1.25
2018-07-01T10:18:22.063Z,0.98
2018-07-01T10:20:51.536Z,1.12
2018-07-01T10:23:20.960Z,0.60
2018-07-01T10:25:50.335Z,0.53
2018-07-01T10:28:19.674Z,0.75
2018-07-01T10:30:49.095Z,0.65
2018-07-01T10:33:18.596Z,0.57
2018-07-01T10:35:48.039Z,0.53
2018-07-01T10:38:17.442Z,0.80
2018-07-01T10:40:46.882Z,0.90
2018-07-01T10:43:16.844Z,0.65
2018-07-01T10:45:46.812Z,0.50
2018-07-01T10:48:16.413Z,0.72
2018-07-01T10:50:45.821Z,0.53
2018-07-01T10:53:16.350Z,0.40
2018-07-01T10:55:45.801Z,0.40
2018-07-01T10:58:15.257Z,0.55
2018-07-01T11:00:44.621Z,0.60
2018-07-01T11:03:16.077Z,0.62
2018-07-01T11:05:45.511Z,0.33
2018-07-01T11:08:14.549Z,0.70
2018-07-01T11:10:43.890Z,0.60
2018-07-01T11:13:27.158Z,0.40
2018-07-01T11:15:56.573Z,0.55
2018-07-01T11:18:26.018Z,0.57
2018-07-01T11:20:55.381Z,0.47
2018-07-01T11:23:32.158Z,0.42
2018-07-01T11:26:01.707Z,0.98
2018-07-01T11:28:31.009Z,0.78
2018-07-01T11:31:00.132Z,0.90
2018-07-01T11:33:44.606Z,1.00
2018-07-01T11:36:14.046Z,1.10
2018-07-01T11:38:44.282Z,0.90
2018-07-01T11:41:13.657Z,0.57
2018-07-01T11:43:59.620Z,1.25
2018-07-01T11:46:29.052Z,1.10
2018-07-01T11:48:58.139Z,0.55
2018-07-01T11:51:27.489Z,0.75
2018-07-01T11:53:57.500Z,0.75
2018-07-01T11:56:26.914Z,0.80
2018-07-01T11:58:56.259Z,0.90
2018-07-01T12:01:25.603Z,0.80
2018-07-01T12:04:16.095Z,0.50
2018-07-01T12:06:45.592Z,0.70
2018-07-01T12:09:14.733Z,0.50
2018-07-01T12:11:44.036Z,0.95
2018-07-01T12:14:16.713Z,0.80
2018-07-01T12:16:46.072Z,0.90
2018-07-01T12:19:15.374Z,0.70
2018-07-01T12:21:44.719Z,1.00
2018-07-01T12:24:23.250Z,1.02
2018-07-01T12:26:52.693Z,0.78
2018-07-01T12:29:22.140Z,0.60
2018-07-01T12:31:51.553Z,0.75
2018-07-01T12:34:24.204Z,0.65
2018-07-01T12:36:53.681Z,0.60
2018-07-01T12:39:23.073Z,0.70
2018-07-01T12:41:52.533Z,0.82
2018-07-01T12:44:22.057Z,0.95
2018-07-01T12:46:51.405Z,0.37
2018-07-01T12:49:20.808Z,0.60
2018-07-01T12:51:50.169Z,0.98
2018-07-01T12:54:20.585Z,0.50
2018-07-01T12:56:50.122Z,0.60
2018-07-01T12:59:19.565Z,0.90
2018-07-01T13:01:48.989Z,0.55
2018-07-01T13:04:26.205Z,0.85
2018-07-01T13:06:55.613Z,0.50
2018-07-01T13:09:24.917Z,0.47
2018-07-01T13:11:54.305Z,0.70
2018-07-01T13:14:23.708Z,0.60
2018-07-01T13:16:53.089Z,0.60
2018-07-01T13:19:22.512Z,0.60
2018-07-01T13:21:51.832Z,0.57
2018-07-01T13:24:22.249Z,0.82
2018-07-01T13:26:51.737Z,0.60
2018-07-01T13:29:21.066Z,0.70
2018-07-01T13:31:50.453Z,0.70
2018-07-01T13:34:20.797Z,0.53
2018-07-01T13:36:50.189Z,0.42
2018-07-01T13:39:19.587Z,0.88
2018-07-01T13:41:48.922Z,0.40
2018-07-01T13:44:32.260Z,0.70
2018-07-01T13:47:01.710Z,0.60
2018-07-01T13:49:31.081Z,0.40
2018-07-01T13:52:00.486Z,0.40
2018-07-01T13:54:40.909Z,0.40
2018-07-01T13:57:10.386Z,0.57
2018-07-01T13:59:39.717Z,0.68
2018-07-01T14:02:09.122Z,0.70
2018-07-01T14:04:48.137Z,0.68
2018-07-01T14:07:17.669Z,0.57
2018-07-01T14:09:47.369Z,0.65
2018-07-01T14:12:16.689Z,0.47
2018-07-01T14:15:00.782Z,0.50
2018-07-01T14:17:30.187Z,0.70
2018-07-01T14:19:59.569Z,0.68
2018-07-01T14:22:28.953Z,0.93
2018-07-01T14:24:58.398Z,0.42
2018-07-01T14:27:27.744Z,0.70
2018-07-01T14:29:57.185Z,0.68
2018-07-01T14:32:26.628Z,0.70
2018-07-01T14:34:56.079Z,0.65
2018-07-01T14:37:25.509Z,0.60
2018-07-01T14:39:54.816Z,0.50
2018-07-01T14:42:24.237Z,0.70
2018-07-01T14:44:53.693Z,0.62
2018-07-01T14:47:23.051Z,0.62
2018-07-01T14:49:52.428Z,0.70
2018-07-01T14:52:21.859Z,0.55
2018-07-01T14:54:59.804Z,0.80
2018-07-01T14:57:28.921Z,0.42
2018-07-01T14:59:58.014Z,0.57
2018-07-01T15:02:27.156Z,0.60
2018-07-01T15:04:56.243Z,0.37
2018-07-01T15:07:25.347Z,0.40
2018-07-01T15:09:54.479Z,0.60
2018-07-01T15:12:23.796Z,1.00
2018-07-01T15:14:53.176Z,0.62
2018-07-01T15:17:22.579Z,0.65
2018-07-01T15:19:58.785Z,0.60
2018-07-01T15:22:28.214Z,8.03
2018-07-01T15:24:57.650Z,1.85
2018-07-01T15:27:27.230Z,0.88
2018-07-01T15:29:56.932Z,0.75
2018-07-01T15:32:26.379Z,0.50
2018-07-01T15:34:55.784Z,0.60
2018-07-01T15:37:25.090Z,0.82
2018-07-01T15:39:54.429Z,1.10
2018-07-01T15:42:23.781Z,1.00
2018-07-01T15:44:53.214Z,1.15
2018-07-01T15:47:22.702Z,0.80
2018-07-01T15:49:52.081Z,0.90
2018-07-01T15:52:21.569Z,3.55
2018-07-01T15:54:52.014Z,2.45
2018-07-01T15:57:21.356Z,2.50
2018-07-01T15:59:50.689Z,2.42
2018-07-01T16:02:20.128Z,0.93
2018-07-01T16:04:49.640Z,0.78
2018-07-01T16:07:19.407Z,0.47
2018-07-01T16:09:49.100Z,1.27
2018-07-01T16:12:18.481Z,0.80
2018-07-01T16:14:47.961Z,0.50
2018-07-01T16:17:17.345Z,0.72
2018-07-01T16:19:46.702Z,0.98
2018-07-01T16:22:16.086Z,0.80
2018-07-01T16:24:52.758Z,0.70
2018-07-01T16:27:28.113Z,0.70
2018-07-01T16:29:57.489Z,0.70
2018-07-01T16:32:26.865Z,0.70
2018-07-01T16:34:55.973Z,0.68
2018-07-01T16:37:25.106Z,0.60
2018-07-01T16:39:54.337Z,0.85
2018-07-01T16:42:23.744Z,0.72
2018-07-01T16:44:53.161Z,0.68
2018-07-01T16:47:22.524Z,0.75
2018-07-01T16:49:51.845Z,0.50
2018-07-01T16:52:21.256Z,0.80
2018-07-01T16:55:07.355Z,0.80
2018-07-01T16:57:36.593Z,1.10
2018-07-01T17:00:07.214Z,0.75
2018-07-01T17:02:36.666Z,0.78
2018-07-01T17:05:06.314Z,0.70
2018-07-01T17:07:35.437Z,0.70
2018-07-01T17:10:04.858Z,0.75
2018-07-01T17:12:42.070Z,0.70
2018-07-01T17:15:11.498Z,0.60
2018-07-01T17:17:40.901Z,0.80
2018-07-01T17:20:10.282Z,0.80
2018-07-01T17:22:43.711Z,0.68
2018-07-01T17:25:13.088Z,0.90
2018-07-01T17:27:42.365Z,0.68
2018-07-01T17:30:11.823Z,0.70
2018-07-01T17:32:49.727Z,0.80
2018-07-01T17:35:19.159Z,0.88
2018-07-01T17:37:48.529Z,0.68
2018-07-01T17:40:17.889Z,0.90
2018-07-01T17:42:48.387Z,0.55
2018-07-01T17:45:17.737Z,0.70
2018-07-01T17:47:47.123Z,0.62
2018-07-01T17:50:16.472Z,0.93
2018-07-01T17:52:46.888Z,0.80
2018-07-01T17:55:16.204Z,0.60
2018-07-01T17:57:45.673Z,0.50
2018-07-01T18:00:15.066Z,0.87
2018-07-01T18:02:48.757Z,0.70
2018-07-01T18:05:18.208Z,0.80
2018-07-01T18:07:47.601Z,0.60
2018-07-01T18:10:16.933Z,0.50
2018-07-01T18:12:56.255Z,0.70
2018-07-01T18:15:25.736Z,0.77
2018-07-01T18:17:55.033Z,0.60
2018-07-01T18:20:24.451Z,0.67
2018-07-01T18:23:27.414Z,0.53
2018-07-01T18:25:24.266Z,0.70
2018-07-01T18:28:03.601Z,0.77
2018-07-01T18:30:22.991Z,0.60
2018-07-01T18:32:55.912Z,0.60
2018-07-01T18:35:26.277Z,1.03
2018-07-01T18:37:55.650Z,0.60
2018-07-01T18:40:25.013Z,0.50
2018-07-01T18:43:19.010Z,0.60
2018-07-01T18:45:48.356Z,0.67
2018-07-01T18:48:17.688Z,0.73
2018-07-01T18:50:47.072Z,0.47
2018-07-01T18:53:17.543Z,0.57
2018-07-01T18:55:46.897Z,0.50
2018-07-01T18:58:16.308Z,0.40
2018-07-01T19:00:45.678Z,0.60
2018-07-01T19:03:15.065Z,0.63
2018-07-01T19:05:44.120Z,0.50
2018-07-01T19:08:13.477Z,0.40
2018-07-01T19:10:42.840Z,0.67
2018-07-01T19:13:19.713Z,0.30
2018-07-01T19:15:49.076Z,0.40
2018-07-01T19:18:18.469Z,0.40
2018-07-01T19:20:47.869Z,0.30
2018-07-01T19:23:24.729Z,0.37
2018-07-01T19:25:54.136Z,0.47
2018-07-01T19:28:23.479Z,0.40
2018-07-01T19:30:52.841Z,0.40
2018-07-01T19:33:45.421Z,0.37
2018-07-01T19:36:14.835Z,0.37
2018-07-01T19:38:44.134Z,0.30
2018-07-01T19:41:13.505Z,0.50
2018-07-01T19:43:42.958Z,0.30
2018-07-01T19:46:12.278Z,0.70
2018-07-01T19:48:41.722Z,0.30
2018-07-01T19:51:11.058Z,0.40
2018-07-01T19:53:48.252Z,0.40
2018-07-01T19:56:17.644Z,0.57
2018-07-01T19:58:47.036Z,0.60
2018-07-01T20:01:16.366Z,0.40
2018-07-01T20:03:45.789Z,0.40
2018-07-01T20:06:15.284Z,0.30
2018-07-01T20:08:44.633Z,0.40
2018-07-01T20:11:14.116Z,0.30
2018-07-01T20:13:46.925Z,0.37
2018-07-01T20:16:16.057Z,0.30
2018-07-01T20:18:45.164Z,0.50
2018-07-01T20:21:14.251Z,0.23
2018-07-01T20:23:47.290Z,0.37
2018-07-01T20:26:16.735Z,0.40
2018-07-01T20:28:46.031Z,0.37
2018-07-01T20:31:15.466Z,0.30
2018-07-01T20:33:44.808Z,0.20
2018-07-01T20:36:14.372Z,0.20
2018-07-01T20:38:43.761Z,0.33
2018-07-01T20:41:13.096Z,0.50
2018-07-01T20:43:43.526Z,0.40
2018-07-01T20:46:12.841Z,0.40
2018-07-01T20:48:41.903Z,0.33
2018-07-01T20:51:11.323Z,0.30
2018-07-01T20:53:41.757Z,0.50
2018-07-01T20:56:10.923Z,0.50
2018-07-01T20:58:40.208Z,0.43
2018-07-01T21:01:09.558Z,0.50
2018-07-01T21:03:57.884Z,0.40
2018-07-01T21:06:27.175Z,0.60
2018-07-01T21:08:56.504Z,0.33
2018-07-01T21:11:25.905Z,0.40
2018-07-01T21:13:56.400Z,0.40
2018-07-01T21:16:25.832Z,0.40
2018-07-01T21:18:55.237Z,0.30
2018-07-01T21:21:24.628Z,0.43
2018-07-01T21:23:54.048Z,0.50
2018-07-01T21:26:23.505Z,0.50
2018-07-01T21:28:52.877Z,0.67
2018-07-01T21:31:22.324Z,0.50
2018-07-01T21:33:55.132Z,0.40
2018-07-01T21:36:24.240Z,0.40
2018-07-01T21:38:53.612Z,0.40
2018-07-01T21:41:23.012Z,0.30
2018-07-01T21:43:52.393Z,0.40
2018-07-01T21:46:21.753Z,0.50
2018-07-01T21:48:51.184Z,0.30
2018-07-01T21:51:20.469Z,0.60
2018-07-01T21:54:04.672Z,0.50
2018-07-01T21:56:34.093Z,0.40
2018-07-01T21:59:03.493Z,0.53
2018-07-01T22:01:32.882Z,0.40
2018-07-01T22:04:13.056Z,0.37
2018-07-01T22:06:47.619Z,0.50
2018-07-01T22:09:17.029Z,0.40
2018-07-01T22:12:08.321Z,0.30
2018-07-01T22:15:02.157Z,0.30
2018-07-01T22:17:31.610Z,0.70
2018-07-01T22:20:01.041Z,0.40
2018-07-01T22:22:30.403Z,0.50
2018-07-01T22:24:59.800Z,0.30
2018-07-01T22:27:29.137Z,0.60
2018-07-01T22:29:58.546Z,0.50
2018-07-01T22:32:36.572Z,0.30
2018-07-01T22:35:05.973Z,0.40
2018-07-01T22:37:35.377Z,0.50
2018-07-01T22:40:05.060Z,0.40
2018-07-01T22:42:34.468Z,0.70
2018-07-01T22:45:03.908Z,1.67
2018-07-01T22:47:33.277Z,3.80
2018-07-01T22:50:02.657Z,4.30
2018-07-01T22:52:40.112Z,4.00
2018-07-01T22:55:09.494Z,3.00
2018-07-01T22:57:38.892Z,1.10
2018-07-01T23:00:07.981Z,0.70
2018-07-01T23:03:29.382Z,0.73
2018-07-01T23:05:58.709Z,0.40
2018-07-01T23:08:28.109Z,0.83
2018-07-01T23:10:57.523Z,0.50
2018-07-01T23:13:27.018Z,0.50
2018-07-01T23:15:56.416Z,1.03
2018-07-01T23:18:25.869Z,1.20
2018-07-01T23:20:55.221Z,1.03
2018-07-01T23:23:26.664Z,1.07
2018-07-01T23:25:55.977Z,1.00
2018-07-01T23:28:25.317Z,0.90
2018-07-01T23:30:54.685Z,0.60
2018-07-01T23:33:26.101Z,0.80
2018-07-01T23:35:55.497Z,0.60
2018-07-01T23:38:24.972Z,0.70
2018-07-01T23:40:54.361Z,0.90
2018-07-01T23:43:23.964Z,0.50
2018-07-01T23:45:53.464Z,0.70
2018-07-01T23:48:22.788Z,0.70
2018-07-01T23:50:52.197Z,0.60
2018-07-01T23:53:22.621Z,0.63
2018-07-01T23:55:51.968Z,0.57
2018-07-01T23:58:21.221Z,0.87
